createdAt,value
2023-04-18T00:01:52.014Z,5.39
2023-04-18T00:04:19.587Z,5.20
2023-04-18T00:06:47.573Z,5.42
2023-04-18T00:09:14.351Z,5.44
2023-04-18T00:11:41.192Z,5.51
2023-04-18T00:14:08.814Z,5.64
2023-04-18T00:16:36.438Z,5.71
2023-04-18T00:19:04.747Z,5.57
2023-04-18T00:21:32.407Z,5.69
2023-04-18T00:23:59.323Z,5.64
2023-04-18T00:26:26.916Z,5.63
2023-04-18T00:28:57.017Z,5.43
2023-04-18T00:31:23.939Z,5.60
2023-04-18T00:33:50.973Z,5.48
2023-04-18T00:36:17.739Z,5.46
2023-04-18T00:38:44.485Z,5.49
2023-04-18T00:41:11.231Z,5.31
2023-04-18T00:43:38.014Z,5.50
2023-04-18T00:46:04.817Z,5.50
2023-04-18T00:48:31.909Z,5.54
2023-04-18T00:51:00.573Z,5.48
2023-04-18T00:53:27.596Z,5.49
2023-04-18T00:55:55.099Z,5.41
2023-04-18T00:58:22.194Z,5.53
2023-04-18T01:00:48.907Z,5.51
2023-04-18T01:03:21.066Z,5.56
2023-04-18T01:05:47.860Z,5.51
2023-04-18T01:08:14.981Z,5.31
2023-04-18T01:10:41.887Z,5.37
2023-04-18T01:13:17.000Z,5.27
2023-04-18T01:15:45.354Z,5.20
2023-04-18T01:18:13.474Z,5.24
2023-04-18T01:20:44.131Z,5.35
2023-04-18T01:23:10.993Z,5.21
2023-04-18T01:25:38.040Z,5.28
2023-04-18T01:28:06.473Z,5.20
2023-04-18T01:30:34.288Z,5.00
2023-04-18T01:33:02.711Z,5.17
2023-04-18T01:35:29.845Z,5.17
2023-04-18T01:37:57.502Z,5.19
2023-04-18T01:40:24.869Z,5.10
2023-04-18T01:42:51.755Z,5.17
2023-04-18T01:45:22.693Z,5.04
2023-04-18T01:47:49.669Z,5.06
2023-04-18T01:50:16.518Z,5.01
2023-04-18T01:52:43.411Z,4.98
2023-04-18T01:55:10.617Z,4.98
2023-04-18T01:57:37.361Z,4.91
2023-04-18T02:00:06.536Z,4.95
2023-04-18T02:02:33.572Z,4.90
2023-04-18T02:05:00.514Z,5.01
2023-04-18T02:07:27.301Z,5.02
2023-04-18T02:09:54.120Z,4.96
2023-04-18T02:12:21.220Z,4.85
2023-04-18T02:14:51.948Z,4.93
2023-04-18T02:17:19.720Z,4.72
2023-04-18T02:19:46.869Z,4.86
2023-04-18T02:22:13.630Z,4.83
2023-04-18T02:24:40.489Z,4.87
2023-04-18T02:27:07.217Z,4.72
2023-04-18T02:29:33.944Z,4.95
2023-04-18T02:32:00.726Z,4.90
2023-04-18T02:34:27.452Z,4.74
2023-04-18T02:36:54.230Z,4.67
2023-04-18T02:39:21.271Z,4.74
2023-04-18T02:41:48.037Z,4.97
2023-04-18T02:44:15.122Z,4.94
2023-04-18T02:46:42.079Z,4.95
2023-04-18T02:49:08.805Z,4.95
2023-04-18T02:51:35.734Z,4.84
2023-04-18T02:54:02.495Z,4.89
2023-04-18T02:56:29.243Z,4.93
2023-04-18T02:58:56.010Z,4.88
2023-04-18T03:01:22.811Z,4.83
2023-04-18T03:03:49.556Z,4.86
2023-04-18T03:06:16.418Z,4.86
2023-04-18T03:08:43.227Z,4.90
2023-04-18T03:11:10.077Z,4.87
2023-04-18T03:13:37.080Z,5.00
2023-04-18T03:16:04.068Z,5.00
2023-04-18T03:18:30.889Z,4.92
2023-04-18T03:20:57.710Z,4.92
2023-04-18T03:23:24.753Z,5.00
2023-04-18T03:25:51.932Z,5.10
2023-04-18T03:28:18.745Z,5.09
2023-04-18T03:30:48.259Z,5.07
2023-04-18T03:33:17.323Z,5.14
2023-04-18T03:35:44.111Z,5.19
2023-04-18T03:38:11.085Z,5.28
2023-04-18T03:40:37.835Z,5.32
2023-04-18T03:43:04.570Z,5.29
2023-04-18T03:45:31.501Z,5.32
2023-04-18T03:47:58.345Z,5.38
2023-04-18T03:50:26.080Z,5.40
2023-04-18T03:52:53.149Z,5.39
2023-04-18T03:55:20.883Z,5.50
2023-04-18T03:57:48.237Z,5.40
2023-04-18T04:00:18.256Z,5.44
2023-04-18T04:02:45.364Z,5.47
2023-04-18T04:05:12.244Z,5.47
2023-04-18T04:07:39.089Z,5.46
2023-04-18T04:10:06.581Z,5.57
2023-04-18T04:12:33.279Z,5.68
2023-04-18T04:15:00.056Z,5.68
2023-04-18T04:17:26.936Z,5.66
2023-04-18T04:19:53.697Z,5.65
2023-04-18T04:22:20.496Z,5.67
2023-04-18T04:24:47.793Z,5.69
2023-04-18T04:27:14.544Z,5.84
2023-04-18T04:29:41.809Z,5.72
2023-04-18T04:32:08.701Z,5.78
2023-04-18T04:34:36.043Z,5.82
2023-04-18T04:37:03.603Z,5.87
2023-04-18T04:39:30.563Z,5.78
2023-04-18T04:42:01.547Z,5.82
2023-04-18T04:44:28.587Z,5.86
2023-04-18T04:46:55.315Z,5.87
2023-04-18T04:49:22.323Z,5.92
2023-04-18T04:51:49.254Z,5.96
2023-04-18T04:54:16.410Z,5.94
2023-04-18T04:56:43.413Z,6.02
2023-04-18T04:59:10.264Z,6.08
2023-04-18T05:01:37.120Z,6.14
2023-04-18T05:04:04.200Z,6.08
2023-04-18T05:06:31.482Z,6.17
2023-04-18T05:08:59.803Z,6.15
2023-04-18T05:11:27.193Z,6.21
2023-04-18T05:13:54.264Z,6.25
2023-04-18T05:16:21.198Z,6.25
2023-04-18T05:18:47.969Z,6.30
2023-04-18T05:21:14.709Z,6.20
2023-04-18T05:23:41.512Z,6.43
2023-04-18T05:26:08.449Z,6.30
2023-04-18T05:28:35.252Z,6.34
2023-04-18T05:31:02.493Z,6.38
2023-04-18T05:33:30.360Z,6.46
2023-04-18T05:35:57.997Z,6.40
2023-04-18T05:38:24.864Z,6.37
2023-04-18T05:40:51.708Z,6.60
2023-04-18T05:43:19.911Z,6.43
2023-04-18T05:45:47.343Z,6.53
2023-04-18T05:48:14.778Z,6.78
2023-04-18T05:50:41.558Z,6.50
2023-04-18T05:53:08.400Z,6.89
2023-04-18T05:55:35.200Z,6.65
2023-04-18T05:58:01.914Z,6.78
2023-04-18T06:00:28.747Z,6.79
2023-04-18T06:02:55.679Z,6.72
2023-04-18T06:05:22.830Z,6.82
2023-04-18T06:07:49.806Z,7.11
2023-04-18T06:10:16.612Z,7.06
2023-04-18T06:12:43.406Z,6.97
2023-04-18T06:15:11.012Z,7.04
2023-04-18T06:17:37.786Z,7.26
2023-04-18T06:20:06.458Z,7.27
2023-04-18T06:22:34.346Z,7.44
2023-04-18T06:25:01.153Z,7.33
2023-04-18T06:27:31.399Z,7.41
2023-04-18T06:29:58.826Z,7.57
2023-04-18T06:32:26.273Z,7.76
2023-04-18T06:34:53.415Z,7.82
2023-04-18T06:37:20.933Z,7.64
2023-04-18T06:39:47.831Z,7.78
2023-04-18T06:42:14.592Z,7.87
2023-04-18T06:44:43.264Z,7.70
2023-04-18T06:47:11.021Z,7.81
2023-04-18T06:49:37.841Z,7.78
2023-04-18T06:52:04.726Z,7.93
2023-04-18T06:54:31.475Z,7.92
2023-04-18T06:56:58.725Z,7.85
2023-04-18T06:59:25.570Z,8.02
2023-04-18T07:01:52.343Z,7.97
2023-04-18T07:04:19.362Z,7.96
2023-04-18T07:06:46.509Z,8.03
2023-04-18T07:09:13.258Z,8.16
2023-04-18T07:11:40.897Z,8.41
2023-04-18T07:14:07.650Z,8.72
2023-04-18T07:16:34.827Z,8.51
2023-04-18T07:19:01.612Z,8.67
2023-04-18T07:21:28.582Z,8.66
2023-04-18T07:23:55.570Z,8.76
2023-04-18T07:26:22.465Z,9.29
2023-04-18T07:28:49.614Z,9.20
2023-04-18T07:31:16.875Z,9.43
2023-04-18T07:33:46.657Z,9.74
2023-04-18T07:36:13.407Z,9.42
2023-04-18T07:38:40.350Z,9.62
2023-04-18T07:41:07.167Z,9.60
2023-04-18T07:43:33.933Z,9.42
2023-04-18T07:46:01.376Z,9.43
2023-04-18T07:48:28.210Z,9.26
2023-04-18T07:50:54.984Z,9.33
2023-04-18T07:53:21.789Z,9.68
2023-04-18T07:55:48.611Z,9.72
2023-04-18T07:58:15.846Z,9.94
2023-04-18T08:00:44.958Z,9.76
2023-04-18T08:03:13.233Z,9.33
2023-04-18T08:05:41.544Z,9.83
2023-04-18T08:08:10.258Z,10.22
2023-04-18T08:10:37.735Z,9.73
2023-04-18T08:13:04.796Z,9.81
2023-04-18T08:15:33.062Z,9.79
2023-04-18T08:18:00.621Z,9.97
2023-04-18T08:20:27.771Z,9.89
2023-04-18T08:23:05.226Z,9.66
2023-04-18T08:25:36.552Z,9.79
2023-04-18T08:28:04.325Z,9.80
2023-04-18T08:30:31.502Z,9.79
2023-04-18T08:33:00.501Z,9.90
2023-04-18T08:35:27.610Z,9.91
2023-04-18T08:37:54.494Z,10.10
2023-04-18T08:40:21.749Z,9.90
2023-04-18T08:42:49.490Z,9.90
2023-04-18T08:45:18.167Z,10.11
2023-04-18T08:47:45.026Z,10.44
2023-04-18T08:50:12.900Z,10.35
2023-04-18T08:52:45.249Z,10.93
2023-04-18T08:55:11.989Z,11.64
2023-04-18T08:57:38.880Z,11.36
2023-04-18T09:00:10.265Z,11.23
2023-04-18T09:02:47.347Z,11.71
2023-04-18T09:05:16.780Z,11.82
2023-04-18T09:07:43.559Z,11.32
2023-04-18T09:10:11.093Z,11.16
2023-04-18T09:12:44.874Z,11.29
2023-04-18T09:15:17.229Z,11.21
2023-04-18T09:17:49.576Z,10.81
2023-04-18T09:20:43.892Z,10.97
2023-04-18T09:23:14.888Z,11.09
2023-04-18T09:25:44.568Z,11.35
2023-04-18T09:28:33.307Z,10.92
2023-04-18T09:31:13.154Z,11.72
2023-04-18T09:33:45.047Z,12.13
2023-04-18T09:36:28.996Z,11.98
2023-04-18T09:38:56.927Z,12.00
2023-04-18T09:41:24.627Z,11.79
2023-04-18T09:44:11.554Z,12.02
2023-04-18T09:46:40.371Z,12.56
2023-04-18T09:49:09.580Z,12.93
2023-04-18T09:51:40.531Z,13.01
2023-04-18T09:54:11.080Z,13.28
2023-04-18T09:56:41.817Z,12.36
2023-04-18T09:59:10.132Z,13.17
2023-04-18T10:01:37.755Z,13.69
2023-04-18T10:04:07.036Z,13.67
2023-04-18T10:06:35.045Z,13.27
2023-04-18T10:09:04.909Z,12.76
2023-04-18T10:11:32.448Z,12.82
2023-04-18T10:14:05.050Z,12.40
2023-04-18T10:16:34.844Z,12.57
2023-04-18T10:19:26.438Z,12.70
2023-04-18T10:21:53.894Z,12.37
2023-04-18T10:24:54.130Z,12.76
2023-04-18T10:27:49.056Z,13.34
2023-04-18T10:30:17.112Z,13.05
2023-04-18T10:32:46.252Z,12.76
2023-04-18T10:35:13.130Z,12.96
2023-04-18T10:38:00.149Z,12.63
2023-04-18T10:40:34.625Z,12.85
2023-04-18T10:43:01.708Z,12.84
2023-04-18T10:45:31.220Z,12.91
2023-04-18T10:48:29.775Z,12.63
2023-04-18T10:51:16.060Z,12.56
2023-04-18T10:54:04.405Z,12.62
2023-04-18T10:56:31.247Z,12.44
2023-04-18T10:59:03.887Z,12.65
2023-04-18T11:01:33.302Z,12.32
2023-04-18T11:04:00.739Z,12.56
2023-04-18T11:06:28.282Z,12.57
2023-04-18T11:09:14.663Z,12.73
2023-04-18T11:11:42.054Z,13.40
2023-04-18T11:14:09.315Z,14.44
2023-04-18T11:16:36.783Z,14.63
2023-04-18T11:19:21.156Z,14.01
2023-04-18T11:21:48.020Z,14.20
2023-04-18T11:24:23.107Z,13.78
2023-04-18T11:26:50.168Z,13.64
2023-04-18T11:29:18.662Z,13.34
2023-04-18T11:31:57.768Z,13.37
2023-04-18T11:34:30.899Z,13.25
2023-04-18T11:36:58.095Z,13.25
2023-04-18T11:39:25.020Z,13.06
2023-04-18T11:41:52.061Z,13.46
2023-04-18T11:44:24.145Z,13.53
2023-04-18T11:46:51.674Z,13.18
2023-04-18T11:49:32.656Z,13.88
2023-04-18T11:52:01.356Z,14.27
2023-04-18T11:54:46.146Z,14.39
2023-04-18T11:57:20.360Z,14.47
2023-04-18T11:59:52.250Z,14.55
2023-04-18T12:02:21.007Z,14.63
2023-04-18T12:04:52.985Z,15.08
2023-04-18T12:07:32.108Z,14.97
2023-04-18T12:09:59.199Z,14.82
2023-04-18T12:12:26.229Z,14.53
2023-04-18T12:15:00.795Z,14.34
2023-04-18T12:17:28.327Z,14.23
2023-04-18T12:19:55.766Z,14.55
2023-04-18T12:22:40.273Z,14.19
2023-04-18T12:25:11.022Z,14.60
2023-04-18T12:27:48.331Z,15.37
2023-04-18T12:30:16.079Z,15.31
2023-04-18T12:32:45.080Z,15.33
2023-04-18T12:35:11.953Z,16.37
2023-04-18T12:37:38.675Z,16.78
2023-04-18T12:40:07.360Z,16.09
2023-04-18T12:42:34.504Z,16.41
2023-04-18T12:45:03.499Z,16.57
2023-04-18T12:47:30.435Z,17.74
2023-04-18T12:49:57.204Z,17.66
2023-04-18T12:52:24.029Z,17.16
2023-04-18T12:54:51.003Z,16.90
2023-04-18T12:57:17.869Z,17.62
2023-04-18T12:59:44.772Z,17.07
2023-04-18T13:02:11.762Z,17.76
2023-04-18T13:04:38.892Z,17.43
2023-04-18T13:07:06.394Z,19.24
2023-04-18T13:09:34.136Z,18.23
2023-04-18T13:12:01.068Z,17.85
2023-04-18T13:14:27.986Z,17.06
2023-04-18T13:16:54.948Z,17.11
2023-04-18T13:19:21.748Z,17.48
2023-04-18T13:21:49.658Z,18.09
2023-04-18T13:24:16.674Z,17.79
2023-04-18T13:26:43.905Z,16.11
2023-04-18T13:29:10.688Z,15.72
2023-04-18T13:31:37.529Z,16.22
2023-04-18T13:34:04.333Z,16.91
2023-04-18T13:36:32.058Z,17.36
2023-04-18T13:38:59.294Z,16.87
2023-04-18T13:41:26.080Z,16.81
2023-04-18T13:43:53.097Z,17.02
2023-04-18T13:46:23.777Z,16.85
2023-04-18T13:48:50.561Z,16.76
2023-04-18T13:51:20.514Z,17.69
2023-04-18T13:53:47.489Z,16.54
2023-04-18T13:56:14.598Z,17.45
2023-04-18T13:58:41.336Z,17.21
2023-04-18T14:01:11.525Z,16.13
2023-04-18T14:03:39.918Z,16.21
2023-04-18T14:06:08.384Z,15.76
2023-04-18T14:08:35.323Z,15.38
2023-04-18T14:11:02.069Z,14.86
2023-04-18T14:13:28.864Z,15.20
2023-04-18T14:15:55.814Z,14.59
2023-04-18T14:18:23.851Z,14.83
2023-04-18T14:20:51.558Z,14.48
2023-04-18T14:23:19.054Z,14.33
2023-04-18T14:25:45.961Z,14.42
2023-04-18T14:28:12.758Z,14.34
2023-04-18T14:30:40.180Z,14.01
2023-04-18T14:33:09.789Z,13.82
2023-04-18T14:35:36.736Z,13.83
2023-04-18T14:38:03.776Z,13.61
2023-04-18T14:40:32.753Z,13.58
2023-04-18T14:42:59.904Z,13.44
2023-04-18T14:45:26.661Z,13.63
2023-04-18T14:47:55.858Z,13.27
2023-04-18T14:50:22.966Z,13.67
2023-04-18T14:52:49.700Z,13.44
2023-04-18T14:55:16.600Z,13.76
2023-04-18T14:57:43.362Z,14.07
2023-04-18T15:00:13.273Z,13.79
2023-04-18T15:02:41.101Z,13.77
2023-04-18T15:05:08.845Z,14.30
2023-04-18T15:07:37.757Z,15.55
2023-04-18T15:10:05.354Z,14.83
2023-04-18T15:12:33.196Z,14.62
2023-04-18T15:15:00.693Z,14.11
2023-04-18T15:17:28.348Z,14.09
2023-04-18T15:19:55.159Z,13.65
2023-04-18T15:22:22.154Z,13.49
2023-04-18T15:24:49.196Z,14.32
2023-04-18T15:27:16.042Z,13.81
2023-04-18T15:29:42.905Z,13.51
2023-04-18T15:32:10.496Z,13.40
2023-04-18T15:34:37.421Z,13.43
2023-04-18T15:37:04.851Z,13.26
2023-04-18T15:39:31.707Z,13.37
2023-04-18T15:41:58.486Z,13.17
2023-04-18T15:44:25.500Z,12.97
2023-04-18T15:46:52.305Z,12.86
2023-04-18T15:49:19.137Z,12.96
2023-04-18T15:51:46.077Z,12.84
2023-04-18T15:54:13.082Z,12.58
2023-04-18T15:56:39.994Z,12.52
2023-04-18T15:59:07.456Z,12.45
2023-04-18T16:01:35.846Z,12.31
2023-04-18T16:04:03.047Z,12.07
2023-04-18T16:06:33.528Z,12.21
2023-04-18T16:09:00.332Z,12.26
2023-04-18T16:11:28.022Z,12.14
2023-04-18T16:13:56.231Z,12.21
2023-04-18T16:16:26.898Z,12.30
2023-04-18T16:18:53.907Z,12.35
2023-04-18T16:21:21.242Z,12.28
2023-04-18T16:23:49.040Z,12.14
2023-04-18T16:26:16.020Z,12.13
2023-04-18T16:28:42.900Z,12.06
2023-04-18T16:31:09.991Z,11.97
2023-04-18T16:33:37.051Z,11.77
2023-04-18T16:36:04.808Z,11.67
2023-04-18T16:38:32.265Z,11.86
2023-04-18T16:41:01.385Z,11.93
2023-04-18T16:43:30.022Z,11.82
2023-04-18T16:45:58.042Z,11.79
2023-04-18T16:48:29.417Z,12.13
2023-04-18T16:50:56.694Z,11.73
2023-04-18T16:53:24.537Z,11.63
2023-04-18T16:55:52.419Z,11.56
2023-04-18T16:58:21.543Z,11.66
2023-04-18T17:00:48.577Z,11.48
2023-04-18T17:03:15.882Z,11.37
2023-04-18T17:05:42.863Z,11.47
2023-04-18T17:08:12.777Z,11.26
2023-04-18T17:10:43.059Z,11.29
2023-04-18T17:13:09.925Z,11.24
2023-04-18T17:15:37.288Z,11.12
2023-04-18T17:18:04.460Z,11.09
2023-04-18T17:20:31.542Z,11.10
2023-04-18T17:22:58.966Z,11.04
2023-04-18T17:25:26.401Z,10.92
2023-04-18T17:27:53.388Z,11.03
2023-04-18T17:30:20.765Z,10.99
2023-04-18T17:32:51.031Z,11.02
2023-04-18T17:35:18.367Z,10.89
2023-04-18T17:37:47.851Z,10.93
2023-04-18T17:40:15.407Z,10.83
2023-04-18T17:42:42.864Z,10.87
2023-04-18T17:45:10.424Z,10.84
2023-04-18T17:47:37.941Z,10.82
2023-04-18T17:50:05.483Z,10.84
2023-04-18T17:52:32.843Z,10.74
2023-04-18T17:55:01.840Z,10.67
2023-04-18T17:57:31.300Z,10.71
2023-04-18T17:59:59.464Z,10.65
2023-04-18T18:02:28.913Z,10.69
2023-04-18T18:04:56.692Z,10.60
2023-04-18T18:07:23.916Z,10.54
2023-04-18T18:09:53.917Z,10.44
2023-04-18T18:12:22.082Z,10.43
2023-04-18T18:14:50.974Z,10.32
2023-04-18T18:17:23.492Z,10.32
2023-04-18T18:19:56.031Z,10.30
2023-04-18T18:22:26.956Z,10.31
2023-04-18T18:24:54.015Z,10.27
2023-04-18T18:27:21.140Z,10.19
2023-04-18T18:29:51.364Z,10.29
2023-04-18T18:32:18.962Z,10.14
2023-04-18T18:34:46.426Z,10.12
2023-04-18T18:37:13.596Z,10.11
2023-04-18T18:39:41.902Z,10.13
2023-04-18T18:42:10.782Z,10.08
2023-04-18T18:44:39.422Z,10.02
2023-04-18T18:47:07.655Z,9.97
2023-04-18T18:49:37.132Z,9.96
2023-04-18T18:52:06.164Z,9.89
2023-04-18T18:54:33.656Z,9.80
2023-04-18T18:57:04.147Z,9.88
2023-04-18T18:59:32.761Z,9.83
2023-04-18T19:01:59.995Z,9.77
2023-04-18T19:04:28.019Z,9.76
2023-04-18T19:06:56.877Z,9.70
2023-04-18T19:09:24.014Z,9.64
2023-04-18T19:11:51.825Z,9.60
2023-04-18T19:14:19.147Z,9.61
2023-04-18T19:16:46.560Z,9.66
2023-04-18T19:19:15.598Z,9.66
2023-04-18T19:21:46.212Z,9.66
2023-04-18T19:24:13.702Z,9.57
2023-04-18T19:26:42.124Z,9.56
2023-04-18T19:29:11.097Z,9.53
2023-04-18T19:31:38.134Z,9.57
2023-04-18T19:34:05.252Z,9.48
2023-04-18T19:36:32.290Z,9.37
2023-04-18T19:38:59.177Z,9.36
2023-04-18T19:41:26.471Z,9.37
2023-04-18T19:43:57.035Z,9.26
2023-04-18T19:46:27.017Z,9.20
2023-04-18T19:48:57.314Z,9.19
2023-04-18T19:51:25.035Z,9.11
2023-04-18T19:53:55.881Z,9.08
2023-04-18T19:56:23.309Z,9.00
2023-04-18T19:58:50.474Z,9.00
2023-04-18T20:01:22.647Z,8.95
2023-04-18T20:03:49.760Z,8.86
2023-04-18T20:06:18.086Z,8.88
2023-04-18T20:08:46.297Z,8.81
2023-04-18T20:11:16.877Z,8.82
2023-04-18T20:13:43.695Z,8.77
2023-04-18T20:16:14.253Z,8.70
2023-04-18T20:18:41.974Z,8.67
2023-04-18T20:21:10.247Z,8.67
2023-04-18T20:23:37.838Z,8.65
2023-04-18T20:26:04.844Z,8.67
2023-04-18T20:28:32.336Z,8.73
2023-04-18T20:30:59.594Z,8.77
2023-04-18T20:33:26.699Z,8.76
2023-04-18T20:35:54.866Z,8.78
2023-04-18T20:38:26.163Z,8.81
2023-04-18T20:40:53.540Z,8.85
2023-04-18T20:43:20.809Z,8.86
2023-04-18T20:45:54.668Z,8.81
2023-04-18T20:48:21.522Z,8.90
2023-04-18T20:50:51.683Z,8.89
2023-04-18T20:53:26.387Z,8.88
2023-04-18T20:55:53.582Z,8.93
2023-04-18T20:58:20.756Z,8.90
2023-04-18T21:00:49.122Z,8.91
2023-04-18T21:03:17.059Z,8.92
2023-04-18T21:05:47.525Z,8.91
2023-04-18T21:08:14.348Z,8.89
2023-04-18T21:10:41.398Z,8.93
2023-04-18T21:13:09.434Z,8.93
2023-04-18T21:15:36.317Z,8.95
2023-04-18T21:18:03.155Z,8.88
2023-04-18T21:20:30.026Z,8.89
2023-04-18T21:22:56.841Z,8.90
2023-04-18T21:25:23.613Z,8.89
2023-04-18T21:27:51.007Z,8.87
2023-04-18T21:30:17.875Z,8.87
2023-04-18T21:32:46.170Z,8.85
2023-04-18T21:35:13.461Z,8.84
2023-04-18T21:37:40.257Z,8.86
2023-04-18T21:40:07.841Z,8.85
2023-04-18T21:42:35.720Z,8.83
2023-04-18T21:45:02.695Z,8.82
2023-04-18T21:47:29.490Z,8.90
2023-04-18T21:49:56.273Z,8.88
2023-04-18T21:52:23.182Z,8.85
2023-04-18T21:54:49.962Z,8.86
2023-04-18T21:57:16.862Z,8.86
2023-04-18T21:59:43.703Z,8.83
2023-04-18T22:02:10.523Z,8.79
2023-04-18T22:04:38.261Z,8.75
2023-04-18T22:07:05.091Z,8.78
2023-04-18T22:09:34.567Z,8.79
2023-04-18T22:12:03.711Z,8.78
2023-04-18T22:14:34.272Z,8.77
2023-04-18T22:17:03.664Z,8.72
2023-04-18T22:19:31.552Z,8.74
2023-04-18T22:21:58.711Z,8.72
2023-04-18T22:24:26.236Z,8.78
2023-04-18T22:26:53.866Z,8.66
2023-04-18T22:29:20.699Z,8.65
2023-04-18T22:31:47.722Z,8.70
2023-04-18T22:34:14.721Z,8.73
2023-04-18T22:36:42.947Z,8.64
2023-04-18T22:39:09.923Z,8.65
2023-04-18T22:41:36.885Z,8.61
2023-04-18T22:44:06.549Z,8.63
2023-04-18T22:46:33.539Z,8.63
2023-04-18T22:49:00.887Z,8.63
2023-04-18T22:51:29.018Z,8.61
2023-04-18T22:53:56.594Z,8.63
2023-04-18T22:56:25.281Z,8.63
2023-04-18T22:58:52.309Z,8.64
2023-04-18T23:01:19.175Z,8.63
2023-04-18T23:03:46.118Z,8.58
2023-04-18T23:06:13.172Z,8.59
2023-04-18T23:08:40.097Z,8.52
2023-04-18T23:11:06.816Z,8.60
2023-04-18T23:13:33.578Z,8.59
2023-04-18T23:16:00.471Z,8.53
2023-04-18T23:18:30.215Z,8.47
2023-04-18T23:20:56.991Z,8.42
2023-04-18T23:23:23.789Z,8.39
2023-04-18T23:25:50.553Z,8.38
2023-04-18T23:28:17.687Z,8.36
2023-04-18T23:30:44.665Z,8.33
2023-04-18T23:33:11.603Z,8.31
2023-04-18T23:35:38.323Z,8.28
2023-04-18T23:38:07.601Z,8.30
2023-04-18T23:40:35.341Z,8.27
2023-04-18T23:43:04.869Z,8.24
2023-04-18T23:45:31.873Z,8.28
2023-04-18T23:47:58.656Z,8.26
2023-04-18T23:50:25.698Z,8.33
2023-04-18T23:52:52.479Z,8.32
2023-04-18T23:55:19.256Z,8.28
2023-04-18T23:57:46.074Z,8.32
